sensor_id;sensor_type;location;lat;lon;timestamp;P1;durP1;ratioP1;P2;durP2;ratioP2
59876;SDS011;45749;51.140;17.184;2023-05-18T00:01:11;12.23;;;6.10;;
59876;SDS011;45749;51.140;17.184;2023-05-18T00:03:38;16.38;;;7.38;;
59876;SDS011;45749;51.140;17.184;2023-05-18T00:06:04;12.48;;;5.40;;
59876;SDS011;45749;51.140;17.184;2023-05-18T00:08:31;15.63;;;7.82;;
59876;SDS011;45749;51.140;17.184;2023-05-18T00:10:57;15.35;;;7.93;;
59876;SDS011;45749;51.140;17.184;2023-05-18T00:13:23;14.73;;;6.22;;
59876;SDS011;45749;51.140;17.184;2023-05-18T00:15:48;11.43;;;6.00;;
59876;SDS011;45749;51.140;17.184;2023-05-18T00:18:13;12.88;;;7.28;;
59876;SDS011;45749;51.140;17.184;2023-05-18T00:20:38;15.93;;;7.00;;
59876;SDS011;45749;51.140;17.184;2023-05-18T00:23:04;15.40;;;7.25;;
59876;SDS011;45749;51.140;17.184;2023-05-18T00:25:30;10.98;;;5.63;;
59876;SDS011;45749;51.140;17.184;2023-05-18T00:27:55;15.98;;;7.55;;
59876;SDS011;45749;51.140;17.184;2023-05-18T00:30:21;14.32;;;6.38;;
59876;SDS011;45749;51.140;17.184;2023-05-18T00:32:48;17.08;;;6.10;;
59876;SDS011;45749;51.140;17.184;2023-05-18T00:35:13;13.60;;;5.80;;
59876;SDS011;45749;51.140;17.184;2023-05-18T00:37:39;12.93;;;5.55;;
59876;SDS011;45749;51.140;17.184;2023-05-18T00:40:04;11.43;;;5.75;;
59876;SDS011;45749;51.140;17.184;2023-05-18T00:42:30;8.85;;;5.28;;
59876;SDS011;45749;51.140;17.184;2023-05-18T00:44:55;11.63;;;4.88;;
59876;SDS011;45749;51.140;17.184;2023-05-18T00:47:21;8.45;;;5.10;;
59876;SDS011;45749;51.140;17.184;2023-05-18T00:49:46;10.02;;;5.20;;
59876;SDS011;45749;51.140;17.184;2023-05-18T00:52:11;11.85;;;6.45;;
59876;SDS011;45749;51.140;17.184;2023-05-18T00:54:37;13.88;;;6.28;;
59876;SDS011;45749;51.140;17.184;2023-05-18T00:57:02;11.98;;;5.90;;
59876;SDS011;45749;51.140;17.184;2023-05-18T00:59:29;15.02;;;7.07;;
59876;SDS011;45749;51.140;17.184;2023-05-18T01:01:54;13.45;;;5.88;;
59876;SDS011;45749;51.140;17.184;2023-05-18T01:04:20;14.55;;;6.97;;
59876;SDS011;45749;51.140;17.184;2023-05-18T01:06:45;10.80;;;5.72;;
59876;SDS011;45749;51.140;17.184;2023-05-18T01:09:11;13.70;;;5.63;;
59876;SDS011;45749;51.140;17.184;2023-05-18T01:11:54;12.77;;;4.90;;
59876;SDS011;45749;51.140;17.184;2023-05-18T01:26:26;11.18;;;4.57;;
59876;SDS011;45749;51.140;17.184;2023-05-18T01:28:57;10.57;;;4.57;;
59876;SDS011;45749;51.140;17.184;2023-05-18T01:31:24;9.57;;;3.83;;
59876;SDS011;45749;51.140;17.184;2023-05-18T01:33:50;10.27;;;4.95;;
59876;SDS011;45749;51.140;17.184;2023-05-18T01:36:16;9.95;;;3.60;;
59876;SDS011;45749;51.140;17.184;2023-05-18T01:38:41;9.48;;;3.97;;
59876;SDS011;45749;51.140;17.184;2023-05-18T01:41:20;10.70;;;4.38;;
59876;SDS011;45749;51.140;17.184;2023-05-18T01:46:33;8.93;;;3.42;;
59876;SDS011;45749;51.140;17.184;2023-05-18T01:49:05;10.18;;;4.28;;
59876;SDS011;45749;51.140;17.184;2023-05-18T01:51:38;8.00;;;3.50;;
59876;SDS011;45749;51.140;17.184;2023-05-18T01:54:08;12.85;;;4.60;;
59876;SDS011;45749;51.140;17.184;2023-05-18T01:56:35;8.65;;;4.70;;
59876;SDS011;45749;51.140;17.184;2023-05-18T01:59:02;9.80;;;4.15;;
59876;SDS011;45749;51.140;17.184;2023-05-18T02:01:28;14.07;;;4.07;;
59876;SDS011;45749;51.140;17.184;2023-05-18T02:03:54;9.57;;;4.28;;
59876;SDS011;45749;51.140;17.184;2023-05-18T02:06:20;14.25;;;3.75;;
59876;SDS011;45749;51.140;17.184;2023-05-18T02:08:45;10.13;;;3.97;;
59876;SDS011;45749;51.140;17.184;2023-05-18T02:11:11;9.88;;;3.70;;
59876;SDS011;45749;51.140;17.184;2023-05-18T02:13:36;7.80;;;4.82;;
59876;SDS011;45749;51.140;17.184;2023-05-18T02:16:02;10.50;;;6.22;;
59876;SDS011;45749;51.140;17.184;2023-05-18T02:18:28;11.82;;;3.97;;
59876;SDS011;45749;51.140;17.184;2023-05-18T02:20:57;10.35;;;4.75;;
59876;SDS011;45749;51.140;17.184;2023-05-18T02:23:23;13.15;;;3.90;;
59876;SDS011;45749;51.140;17.184;2023-05-18T02:25:49;8.63;;;3.30;;
59876;SDS011;45749;51.140;17.184;2023-05-18T02:28:14;13.13;;;3.88;;
59876;SDS011;45749;51.140;17.184;2023-05-18T02:30:40;8.52;;;3.05;;
59876;SDS011;45749;51.140;17.184;2023-05-18T02:33:05;8.27;;;3.55;;
59876;SDS011;45749;51.140;17.184;2023-05-18T02:35:33;6.18;;;3.30;;
59876;SDS011;45749;51.140;17.184;2023-05-18T02:37:58;10.00;;;2.88;;
59876;SDS011;45749;51.140;17.184;2023-05-18T02:40:24;8.77;;;3.60;;
59876;SDS011;45749;51.140;17.184;2023-05-18T02:42:50;7.15;;;3.60;;
59876;SDS011;45749;51.140;17.184;2023-05-18T02:45:15;9.25;;;3.30;;
59876;SDS011;45749;51.140;17.184;2023-05-18T02:47:40;8.55;;;3.30;;
59876;SDS011;45749;51.140;17.184;2023-05-18T02:50:08;7.85;;;3.33;;
59876;SDS011;45749;51.140;17.184;2023-05-18T02:52:33;9.48;;;2.35;;
59876;SDS011;45749;51.140;17.184;2023-05-18T02:54:59;8.93;;;3.33;;
59876;SDS011;45749;51.140;17.184;2023-05-18T02:57:24;6.80;;;2.95;;
59876;SDS011;45749;51.140;17.184;2023-05-18T02:59:50;7.45;;;3.10;;
59876;SDS011;45749;51.140;17.184;2023-05-18T03:02:16;8.77;;;3.15;;
59876;SDS011;45749;51.140;17.184;2023-05-18T03:04:41;8.40;;;2.30;;
59876;SDS011;45749;51.140;17.184;2023-05-18T03:07:07;9.07;;;3.25;;
59876;SDS011;45749;51.140;17.184;2023-05-18T03:09:32;8.38;;;3.55;;
59876;SDS011;45749;51.140;17.184;2023-05-18T03:11:57;7.90;;;2.85;;
59876;SDS011;45749;51.140;17.184;2023-05-18T03:14:23;7.85;;;3.47;;
59876;SDS011;45749;51.140;17.184;2023-05-18T03:16:48;5.88;;;2.95;;
59876;SDS011;45749;51.140;17.184;2023-05-18T03:19:18;10.68;;;4.13;;
59876;SDS011;45749;51.140;17.184;2023-05-18T03:21:43;9.60;;;3.20;;
59876;SDS011;45749;51.140;17.184;2023-05-18T03:24:09;9.15;;;2.78;;
59876;SDS011;45749;51.140;17.184;2023-05-18T03:26:39;11.88;;;4.78;;
59876;SDS011;45749;51.140;17.184;2023-05-18T03:29:07;7.82;;;3.65;;
59876;SDS011;45749;51.140;17.184;2023-05-18T03:31:33;5.53;;;2.90;;
59876;SDS011;45749;51.140;17.184;2023-05-18T03:33:58;8.73;;;3.47;;
59876;SDS011;45749;51.140;17.184;2023-05-18T03:36:23;11.38;;;4.13;;
59876;SDS011;45749;51.140;17.184;2023-05-18T03:38:52;12.65;;;3.58;;
59876;SDS011;45749;51.140;17.184;2023-05-18T03:41:17;9.82;;;3.92;;
59876;SDS011;45749;51.140;17.184;2023-05-18T03:43:43;9.85;;;3.22;;
59876;SDS011;45749;51.140;17.184;2023-05-18T03:46:08;8.23;;;3.60;;
59876;SDS011;45749;51.140;17.184;2023-05-18T03:48:33;5.03;;;2.88;;
59876;SDS011;45749;51.140;17.184;2023-05-18T03:50:58;10.13;;;4.60;;
59876;SDS011;45749;51.140;17.184;2023-05-18T03:53:24;9.57;;;2.70;;
59876;SDS011;45749;51.140;17.184;2023-05-18T03:55:50;8.55;;;2.97;;
59876;SDS011;45749;51.140;17.184;2023-05-18T03:58:16;9.05;;;2.97;;
59876;SDS011;45749;51.140;17.184;2023-05-18T04:00:44;7.13;;;3.78;;
59876;SDS011;45749;51.140;17.184;2023-05-18T04:03:09;9.70;;;3.08;;
59876;SDS011;45749;51.140;17.184;2023-05-18T04:05:38;9.25;;;3.28;;
59876;SDS011;45749;51.140;17.184;2023-05-18T04:08:07;9.52;;;3.20;;
59876;SDS011;45749;51.140;17.184;2023-05-18T04:10:32;12.35;;;4.15;;
59876;SDS011;45749;51.140;17.184;2023-05-18T04:12:58;10.88;;;3.40;;
59876;SDS011;45749;51.140;17.184;2023-05-18T04:15:23;7.97;;;3.08;;
59876;SDS011;45749;51.140;17.184;2023-05-18T04:17:49;7.40;;;2.80;;
59876;SDS011;45749;51.140;17.184;2023-05-18T04:20:15;7.57;;;3.05;;
59876;SDS011;45749;51.140;17.184;2023-05-18T04:22:44;11.98;;;3.40;;
59876;SDS011;45749;51.140;17.184;2023-05-18T04:25:11;7.25;;;2.65;;
59876;SDS011;45749;51.140;17.184;2023-05-18T04:27:38;10.05;;;2.75;;
59876;SDS011;45749;51.140;17.184;2023-05-18T04:30:03;8.65;;;3.30;;
59876;SDS011;45749;51.140;17.184;2023-05-18T04:32:29;9.70;;;3.10;;
59876;SDS011;45749;51.140;17.184;2023-05-18T04:35:00;9.10;;;3.08;;
59876;SDS011;45749;51.140;17.184;2023-05-18T04:37:25;14.68;;;3.85;;
59876;SDS011;45749;51.140;17.184;2023-05-18T04:39:51;6.10;;;3.10;;
59876;SDS011;45749;51.140;17.184;2023-05-18T04:42:17;9.30;;;2.33;;
59876;SDS011;45749;51.140;17.184;2023-05-18T04:44:43;10.57;;;4.55;;
59876;SDS011;45749;51.140;17.184;2023-05-18T04:47:09;10.18;;;3.45;;
59876;SDS011;45749;51.140;17.184;2023-05-18T04:49:34;8.50;;;3.08;;
59876;SDS011;45749;51.140;17.184;2023-05-18T04:51:59;7.28;;;2.92;;
59876;SDS011;45749;51.140;17.184;2023-05-18T04:54:25;12.82;;;4.68;;
59876;SDS011;45749;51.140;17.184;2023-05-18T04:56:55;9.90;;;3.30;;
59876;SDS011;45749;51.140;17.184;2023-05-18T04:59:21;12.57;;;3.05;;
59876;SDS011;45749;51.140;17.184;2023-05-18T05:01:50;8.38;;;3.03;;
59876;SDS011;45749;51.140;17.184;2023-05-18T05:04:16;9.95;;;3.28;;
59876;SDS011;45749;51.140;17.184;2023-05-18T05:06:42;12.90;;;3.25;;
59876;SDS011;45749;51.140;17.184;2023-05-18T05:09:07;6.25;;;2.78;;
59876;SDS011;45749;51.140;17.184;2023-05-18T05:11:32;6.05;;;3.05;;
59876;SDS011;45749;51.140;17.184;2023-05-18T05:13:59;10.15;;;3.42;;
59876;SDS011;45749;51.140;17.184;2023-05-18T05:16:25;8.57;;;2.25;;
59876;SDS011;45749;51.140;17.184;2023-05-18T05:18:50;10.73;;;3.13;;
59876;SDS011;45749;51.140;17.184;2023-05-18T05:21:16;7.72;;;2.55;;
59876;SDS011;45749;51.140;17.184;2023-05-18T05:23:41;11.18;;;3.47;;
59876;SDS011;45749;51.140;17.184;2023-05-18T05:26:06;14.77;;;3.95;;
59876;SDS011;45749;51.140;17.184;2023-05-18T05:28:32;11.13;;;2.75;;
59876;SDS011;45749;51.140;17.184;2023-05-18T05:30:57;7.55;;;2.47;;
59876;SDS011;45749;51.140;17.184;2023-05-18T05:33:22;10.90;;;3.45;;
59876;SDS011;45749;51.140;17.184;2023-05-18T05:35:47;9.98;;;2.80;;
59876;SDS011;45749;51.140;17.184;2023-05-18T05:38:13;4.93;;;2.03;;
59876;SDS011;45749;51.140;17.184;2023-05-18T05:40:38;5.43;;;2.13;;
59876;SDS011;45749;51.140;17.184;2023-05-18T05:43:04;6.65;;;2.38;;
59876;SDS011;45749;51.140;17.184;2023-05-18T05:45:30;10.82;;;3.17;;
59876;SDS011;45749;51.140;17.184;2023-05-18T05:47:55;10.50;;;2.72;;
59876;SDS011;45749;51.140;17.184;2023-05-18T05:50:21;9.95;;;2.35;;
59876;SDS011;45749;51.140;17.184;2023-05-18T05:52:46;9.05;;;3.20;;
59876;SDS011;45749;51.140;17.184;2023-05-18T05:55:11;6.97;;;2.58;;
59876;SDS011;45749;51.140;17.184;2023-05-18T05:57:37;8.73;;;2.72;;
59876;SDS011;45749;51.140;17.184;2023-05-18T06:00:06;9.45;;;2.78;;
59876;SDS011;45749;51.140;17.184;2023-05-18T06:02:38;13.23;;;3.72;;
59876;SDS011;45749;51.140;17.184;2023-05-18T06:05:04;9.50;;;2.47;;
59876;SDS011;45749;51.140;17.184;2023-05-18T06:07:31;9.68;;;2.83;;
59876;SDS011;45749;51.140;17.184;2023-05-18T06:09:56;10.40;;;1.75;;
59876;SDS011;45749;51.140;17.184;2023-05-18T06:12:22;10.32;;;2.25;;
59876;SDS011;45749;51.140;17.184;2023-05-18T06:14:47;10.88;;;2.90;;
59876;SDS011;45749;51.140;17.184;2023-05-18T06:17:12;6.50;;;2.53;;
59876;SDS011;45749;51.140;17.184;2023-05-18T06:19:38;6.03;;;2.05;;
59876;SDS011;45749;51.140;17.184;2023-05-18T06:22:03;7.45;;;2.13;;
59876;SDS011;45749;51.140;17.184;2023-05-18T06:24:28;6.45;;;2.78;;
59876;SDS011;45749;51.140;17.184;2023-05-18T06:26:54;5.95;;;2.00;;
59876;SDS011;45749;51.140;17.184;2023-05-18T06:29:19;7.90;;;2.45;;
59876;SDS011;45749;51.140;17.184;2023-05-18T06:31:45;11.25;;;2.50;;
59876;SDS011;45749;51.140;17.184;2023-05-18T06:34:10;9.25;;;2.13;;
59876;SDS011;45749;51.140;17.184;2023-05-18T06:36:36;3.38;;;2.03;;
59876;SDS011;45749;51.140;17.184;2023-05-18T06:39:02;7.00;;;1.65;;
59876;SDS011;45749;51.140;17.184;2023-05-18T06:41:28;5.15;;;1.80;;
59876;SDS011;45749;51.140;17.184;2023-05-18T06:43:54;9.82;;;3.63;;
59876;SDS011;45749;51.140;17.184;2023-05-18T06:46:23;5.07;;;2.05;;
59876;SDS011;45749;51.140;17.184;2023-05-18T06:48:50;4.65;;;1.55;;
59876;SDS011;45749;51.140;17.184;2023-05-18T06:51:16;7.32;;;1.77;;
59876;SDS011;45749;51.140;17.184;2023-05-18T06:53:41;7.18;;;1.45;;
59876;SDS011;45749;51.140;17.184;2023-05-18T06:56:07;9.35;;;1.83;;
59876;SDS011;45749;51.140;17.184;2023-05-18T06:58:32;10.68;;;2.38;;
59876;SDS011;45749;51.140;17.184;2023-05-18T07:00:57;7.57;;;3.22;;
59876;SDS011;45749;51.140;17.184;2023-05-18T07:03:23;7.38;;;1.88;;
59876;SDS011;45749;51.140;17.184;2023-05-18T07:05:51;12.70;;;2.10;;
59876;SDS011;45749;51.140;17.184;2023-05-18T07:08:16;3.97;;;1.30;;
59876;SDS011;45749;51.140;17.184;2023-05-18T07:10:42;5.63;;;2.28;;
59876;SDS011;45749;51.140;17.184;2023-05-18T07:13:07;4.03;;;1.52;;
59876;SDS011;45749;51.140;17.184;2023-05-18T07:15:32;8.32;;;1.60;;
59876;SDS011;45749;51.140;17.184;2023-05-18T07:17:57;9.25;;;3.65;;
59876;SDS011;45749;51.140;17.184;2023-05-18T07:20:23;7.78;;;2.15;;
59876;SDS011;45749;51.140;17.184;2023-05-18T07:22:48;8.05;;;1.58;;
59876;SDS011;45749;51.140;17.184;2023-05-18T07:25:14;9.55;;;2.60;;
59876;SDS011;45749;51.140;17.184;2023-05-18T07:27:40;7.82;;;1.60;;
59876;SDS011;45749;51.140;17.184;2023-05-18T07:30:05;6.68;;;1.88;;
59876;SDS011;45749;51.140;17.184;2023-05-18T07:32:31;7.25;;;1.48;;
59876;SDS011;45749;51.140;17.184;2023-05-18T07:34:57;8.35;;;2.20;;
59876;SDS011;45749;51.140;17.184;2023-05-18T07:37:23;5.40;;;1.40;;
59876;SDS011;45749;51.140;17.184;2023-05-18T07:39:48;5.13;;;1.45;;
59876;SDS011;45749;51.140;17.184;2023-05-18T07:42:13;4.80;;;1.45;;
59876;SDS011;45749;51.140;17.184;2023-05-18T07:44:39;8.77;;;1.83;;
59876;SDS011;45749;51.140;17.184;2023-05-18T07:47:04;7.38;;;2.70;;
59876;SDS011;45749;51.140;17.184;2023-05-18T07:49:30;6.45;;;1.88;;
59876;SDS011;45749;51.140;17.184;2023-05-18T07:51:55;8.02;;;1.63;;
59876;SDS011;45749;51.140;17.184;2023-05-18T07:54:21;4.60;;;1.73;;
59876;SDS011;45749;51.140;17.184;2023-05-18T07:56:47;4.43;;;1.13;;
59876;SDS011;45749;51.140;17.184;2023-05-18T07:59:12;7.20;;;1.52;;
59876;SDS011;45749;51.140;17.184;2023-05-18T08:01:37;6.05;;;1.55;;
59876;SDS011;45749;51.140;17.184;2023-05-18T08:04:03;5.97;;;1.65;;
59876;SDS011;45749;51.140;17.184;2023-05-18T08:06:29;7.35;;;2.17;;
59876;SDS011;45749;51.140;17.184;2023-05-18T08:08:55;4.88;;;1.70;;
59876;SDS011;45749;51.140;17.184;2023-05-18T08:11:21;5.90;;;1.88;;
59876;SDS011;45749;51.140;17.184;2023-05-18T08:13:47;7.18;;;2.03;;
59876;SDS011;45749;51.140;17.184;2023-05-18T08:16:13;6.65;;;1.73;;
59876;SDS011;45749;51.140;17.184;2023-05-18T08:18:38;6.53;;;2.25;;
59876;SDS011;45749;51.140;17.184;2023-05-18T08:21:04;7.90;;;1.85;;
59876;SDS011;45749;51.140;17.184;2023-05-18T08:23:32;6.22;;;1.75;;
59876;SDS011;45749;51.140;17.184;2023-05-18T08:25:58;3.67;;;1.20;;
59876;SDS011;45749;51.140;17.184;2023-05-18T08:28:24;7.25;;;1.65;;
59876;SDS011;45749;51.140;17.184;2023-05-18T08:30:49;4.50;;;1.38;;
59876;SDS011;45749;51.140;17.184;2023-05-18T08:33:15;3.90;;;1.73;;
59876;SDS011;45749;51.140;17.184;2023-05-18T08:35:41;7.95;;;2.17;;
59876;SDS011;45749;51.140;17.184;2023-05-18T08:38:06;6.10;;;1.95;;
59876;SDS011;45749;51.140;17.184;2023-05-18T08:40:36;5.45;;;2.00;;
59876;SDS011;45749;51.140;17.184;2023-05-18T08:43:06;5.40;;;1.75;;
59876;SDS011;45749;51.140;17.184;2023-05-18T08:45:54;3.13;;;1.55;;
59876;SDS011;45749;51.140;17.184;2023-05-18T08:48:40;5.50;;;1.33;;
59876;SDS011;45749;51.140;17.184;2023-05-18T08:51:10;4.65;;;1.90;;
59876;SDS011;45749;51.140;17.184;2023-05-18T08:53:36;4.95;;;1.35;;
59876;SDS011;45749;51.140;17.184;2023-05-18T08:56:03;4.93;;;1.88;;
59876;SDS011;45749;51.140;17.184;2023-05-18T08:58:31;4.30;;;1.92;;
59876;SDS011;45749;51.140;17.184;2023-05-18T09:00:59;5.45;;;1.50;;
59876;SDS011;45749;51.140;17.184;2023-05-18T09:03:26;5.15;;;1.50;;
59876;SDS011;45749;51.140;17.184;2023-05-18T09:05:52;3.78;;;1.92;;
59876;SDS011;45749;51.140;17.184;2023-05-18T09:08:19;2.95;;;1.60;;
59876;SDS011;45749;51.140;17.184;2023-05-18T09:10:46;4.85;;;2.28;;
59876;SDS011;45749;51.140;17.184;2023-05-18T09:13:13;3.38;;;1.63;;
59876;SDS011;45749;51.140;17.184;2023-05-18T09:15:40;4.45;;;1.25;;
59876;SDS011;45749;51.140;17.184;2023-05-18T09:18:05;7.05;;;2.05;;
59876;SDS011;45749;51.140;17.184;2023-05-18T09:20:31;5.07;;;1.33;;
59876;SDS011;45749;51.140;17.184;2023-05-18T09:22:57;5.50;;;1.58;;
59876;SDS011;45749;51.140;17.184;2023-05-18T09:25:23;6.18;;;1.90;;
59876;SDS011;45749;51.140;17.184;2023-05-18T09:27:50;8.00;;;1.60;;
59876;SDS011;45749;51.140;17.184;2023-05-18T09:30:17;3.80;;;1.30;;
59876;SDS011;45749;51.140;17.184;2023-05-18T09:32:42;5.97;;;1.63;;
59876;SDS011;45749;51.140;17.184;2023-05-18T09:35:11;5.53;;;1.50;;
59876;SDS011;45749;51.140;17.184;2023-05-18T09:37:40;6.25;;;1.40;;
59876;SDS011;45749;51.140;17.184;2023-05-18T09:40:06;2.05;;;1.00;;
59876;SDS011;45749;51.140;17.184;2023-05-18T09:42:35;2.88;;;1.10;;
59876;SDS011;45749;51.140;17.184;2023-05-18T09:45:02;6.20;;;1.50;;
59876;SDS011;45749;51.140;17.184;2023-05-18T09:47:49;4.47;;;1.85;;
59876;SDS011;45749;51.140;17.184;2023-05-18T09:50:21;5.80;;;1.40;;
59876;SDS011;45749;51.140;17.184;2023-05-18T09:52:48;3.50;;;1.10;;
59876;SDS011;45749;51.140;17.184;2023-05-18T09:55:14;4.10;;;1.17;;
59876;SDS011;45749;51.140;17.184;2023-05-18T09:57:42;5.53;;;1.65;;
59876;SDS011;45749;51.140;17.184;2023-05-18T10:00:08;4.88;;;1.20;;
59876;SDS011;45749;51.140;17.184;2023-05-18T10:02:39;2.88;;;0.80;;
59876;SDS011;45749;51.140;17.184;2023-05-18T10:05:06;4.55;;;1.25;;
59876;SDS011;45749;51.140;17.184;2023-05-18T10:07:43;2.38;;;1.05;;
59876;SDS011;45749;51.140;17.184;2023-05-18T10:10:09;4.78;;;1.02;;
59876;SDS011;45749;51.140;17.184;2023-05-18T10:12:37;3.70;;;2.25;;
59876;SDS011;45749;51.140;17.184;2023-05-18T10:15:07;3.90;;;0.95;;
59876;SDS011;45749;51.140;17.184;2023-05-18T10:17:33;5.15;;;1.00;;
59876;SDS011;45749;51.140;17.184;2023-05-18T10:20:01;5.15;;;1.10;;
59876;SDS011;45749;51.140;17.184;2023-05-18T10:22:30;3.65;;;1.05;;
59876;SDS011;45749;51.140;17.184;2023-05-18T10:24:59;4.07;;;0.73;;
59876;SDS011;45749;51.140;17.184;2023-05-18T10:27:26;5.13;;;0.98;;
59876;SDS011;45749;51.140;17.184;2023-05-18T10:29:54;3.85;;;1.40;;
59876;SDS011;45749;51.140;17.184;2023-05-18T10:32:22;1.73;;;0.90;;
59876;SDS011;45749;51.140;17.184;2023-05-18T10:34:50;1.85;;;0.88;;
59876;SDS011;45749;51.140;17.184;2023-05-18T10:37:18;4.45;;;0.85;;
59876;SDS011;45749;51.140;17.184;2023-05-18T10:39:46;2.92;;;0.98;;
59876;SDS011;45749;51.140;17.184;2023-05-18T10:42:14;3.30;;;0.70;;
59876;SDS011;45749;51.140;17.184;2023-05-18T10:44:40;7.50;;;1.27;;
59876;SDS011;45749;51.140;17.184;2023-05-18T10:47:08;2.10;;;0.80;;
59876;SDS011;45749;51.140;17.184;2023-05-18T10:49:36;3.05;;;1.30;;
59876;SDS011;45749;51.140;17.184;2023-05-18T10:52:02;3.10;;;0.75;;
59876;SDS011;45749;51.140;17.184;2023-05-18T10:54:27;1.85;;;0.77;;
59876;SDS011;45749;51.140;17.184;2023-05-18T10:56:54;3.05;;;1.20;;
59876;SDS011;45749;51.140;17.184;2023-05-18T10:59:20;3.33;;;0.82;;
59876;SDS011;45749;51.140;17.184;2023-05-18T11:01:49;2.92;;;1.15;;
59876;SDS011;45749;51.140;17.184;2023-05-18T11:04:21;3.92;;;1.02;;
59876;SDS011;45749;51.140;17.184;2023-05-18T11:06:57;2.15;;;0.90;;
59876;SDS011;45749;51.140;17.184;2023-05-18T11:09:23;3.50;;;1.08;;
59876;SDS011;45749;51.140;17.184;2023-05-18T11:14:24;1.95;;;1.02;;
59876;SDS011;45749;51.140;17.184;2023-05-18T11:16:51;2.25;;;0.82;;
59876;SDS011;45749;51.140;17.184;2023-05-18T11:19:17;1.48;;;0.70;;
59876;SDS011;45749;51.140;17.184;2023-05-18T11:24:17;4.72;;;0.75;;
59876;SDS011;45749;51.140;17.184;2023-05-18T11:29:19;4.00;;;1.35;;
59876;SDS011;45749;51.140;17.184;2023-05-18T11:31:53;3.45;;;1.00;;
59876;SDS011;45749;51.140;17.184;2023-05-18T11:34:39;3.17;;;1.00;;
59876;SDS011;45749;51.140;17.184;2023-05-18T11:37:05;2.75;;;1.05;;
59876;SDS011;45749;51.140;17.184;2023-05-18T11:39:33;4.30;;;1.30;;
59876;SDS011;45749;51.140;17.184;2023-05-18T11:42:00;2.60;;;1.00;;
59876;SDS011;45749;51.140;17.184;2023-05-18T11:44:27;3.72;;;1.00;;
59876;SDS011;45749;51.140;17.184;2023-05-18T11:49:27;3.63;;;1.00;;
59876;SDS011;45749;51.140;17.184;2023-05-18T11:51:57;2.67;;;0.80;;
59876;SDS011;45749;51.140;17.184;2023-05-18T11:54:26;1.80;;;0.93;;
59876;SDS011;45749;51.140;17.184;2023-05-18T11:56:51;1.55;;;0.80;;
59876;SDS011;45749;51.140;17.184;2023-05-18T11:59:17;2.13;;;0.70;;
59876;SDS011;45749;51.140;17.184;2023-05-18T12:01:55;1.95;;;0.80;;
59876;SDS011;45749;51.140;17.184;2023-05-18T12:04:24;2.70;;;1.00;;
59876;SDS011;45749;51.140;17.184;2023-05-18T12:06:51;4.38;;;1.00;;
59876;SDS011;45749;51.140;17.184;2023-05-18T12:09:17;3.83;;;1.05;;
59876;SDS011;45749;51.140;17.184;2023-05-18T12:11:43;1.85;;;0.82;;
59876;SDS011;45749;51.140;17.184;2023-05-18T12:14:09;4.25;;;1.00;;
59876;SDS011;45749;51.140;17.184;2023-05-18T12:16:36;5.75;;;0.90;;
59876;SDS011;45749;51.140;17.184;2023-05-18T12:19:03;1.60;;;0.60;;
59876;SDS011;45749;51.140;17.184;2023-05-18T12:21:28;1.80;;;0.60;;
59876;SDS011;45749;51.140;17.184;2023-05-18T12:23:57;1.48;;;0.80;;
59876;SDS011;45749;51.140;17.184;2023-05-18T12:26:23;2.60;;;0.70;;
59876;SDS011;45749;51.140;17.184;2023-05-18T12:28:50;1.13;;;0.80;;
59876;SDS011;45749;51.140;17.184;2023-05-18T12:31:16;1.73;;;0.70;;
59876;SDS011;45749;51.140;17.184;2023-05-18T12:33:41;3.90;;;0.90;;
59876;SDS011;45749;51.140;17.184;2023-05-18T12:36:12;2.47;;;0.70;;
59876;SDS011;45749;51.140;17.184;2023-05-18T12:38:37;2.45;;;0.93;;
59876;SDS011;45749;51.140;17.184;2023-05-18T12:41:03;1.75;;;0.60;;
59876;SDS011;45749;51.140;17.184;2023-05-18T12:43:34;1.58;;;1.00;;
59876;SDS011;45749;51.140;17.184;2023-05-18T12:46:00;2.92;;;1.10;;
59876;SDS011;45749;51.140;17.184;2023-05-18T12:48:26;2.83;;;0.85;;
59876;SDS011;45749;51.140;17.184;2023-05-18T12:50:53;2.88;;;0.77;;
59876;SDS011;45749;51.140;17.184;2023-05-18T12:53:19;1.88;;;0.80;;
59876;SDS011;45749;51.140;17.184;2023-05-18T12:55:44;2.17;;;0.60;;
59876;SDS011;45749;51.140;17.184;2023-05-18T12:58:12;3.47;;;1.08;;
59876;SDS011;45749;51.140;17.184;2023-05-18T13:00:42;3.22;;;1.15;;
59876;SDS011;45749;51.140;17.184;2023-05-18T13:03:09;3.95;;;1.30;;
59876;SDS011;45749;51.140;17.184;2023-05-18T13:05:37;2.70;;;0.80;;
59876;SDS011;45749;51.140;17.184;2023-05-18T13:08:03;4.25;;;1.05;;
59876;SDS011;45749;51.140;17.184;2023-05-18T13:10:29;1.98;;;0.82;;
59876;SDS011;45749;51.140;17.184;2023-05-18T13:12:56;3.85;;;1.15;;
59876;SDS011;45749;51.140;17.184;2023-05-18T13:15:35;2.30;;;1.02;;
59876;SDS011;45749;51.140;17.184;2023-05-18T13:18:07;2.13;;;0.80;;
59876;SDS011;45749;51.140;17.184;2023-05-18T13:20:45;2.40;;;0.85;;
59876;SDS011;45749;51.140;17.184;2023-05-18T13:23:15;2.35;;;0.80;;
59876;SDS011;45749;51.140;17.184;2023-05-18T13:25:42;2.80;;;0.88;;
59876;SDS011;45749;51.140;17.184;2023-05-18T13:28:09;3.03;;;1.17;;
59876;SDS011;45749;51.140;17.184;2023-05-18T13:30:36;3.13;;;0.88;;
59876;SDS011;45749;51.140;17.184;2023-05-18T13:33:03;1.52;;;1.00;;
59876;SDS011;45749;51.140;17.184;2023-05-18T13:35:32;1.85;;;0.90;;
59876;SDS011;45749;51.140;17.184;2023-05-18T13:37:57;2.38;;;0.90;;
59876;SDS011;45749;51.140;17.184;2023-05-18T13:40:23;1.83;;;1.00;;
59876;SDS011;45749;51.140;17.184;2023-05-18T13:42:49;2.20;;;1.48;;
59876;SDS011;45749;51.140;17.184;2023-05-18T13:45:15;1.70;;;0.77;;
59876;SDS011;45749;51.140;17.184;2023-05-18T13:47:40;2.97;;;1.00;;
59876;SDS011;45749;51.140;17.184;2023-05-18T13:50:06;2.17;;;0.65;;
59876;SDS011;45749;51.140;17.184;2023-05-18T13:52:33;2.60;;;0.93;;
59876;SDS011;45749;51.140;17.184;2023-05-18T13:55:02;1.23;;;1.08;;
59876;SDS011;45749;51.140;17.184;2023-05-18T13:57:28;2.50;;;1.00;;
59876;SDS011;45749;51.140;17.184;2023-05-18T13:59:55;2.05;;;0.80;;
59876;SDS011;45749;51.140;17.184;2023-05-18T14:02:22;2.40;;;1.10;;
59876;SDS011;45749;51.140;17.184;2023-05-18T14:04:48;2.53;;;1.23;;
59876;SDS011;45749;51.140;17.184;2023-05-18T14:07:14;2.75;;;1.23;;
59876;SDS011;45749;51.140;17.184;2023-05-18T14:09:39;2.00;;;1.10;;
59876;SDS011;45749;51.140;17.184;2023-05-18T14:12:04;3.63;;;1.63;;
59876;SDS011;45749;51.140;17.184;2023-05-18T14:14:30;3.15;;;0.80;;
59876;SDS011;45749;51.140;17.184;2023-05-18T14:16:55;4.38;;;1.17;;
59876;SDS011;45749;51.140;17.184;2023-05-18T14:19:21;2.60;;;1.10;;
59876;SDS011;45749;51.140;17.184;2023-05-18T14:21:46;2.50;;;0.98;;
59876;SDS011;45749;51.140;17.184;2023-05-18T14:24:12;2.10;;;1.02;;
59876;SDS011;45749;51.140;17.184;2023-05-18T14:26:39;2.20;;;1.00;;
59876;SDS011;45749;51.140;17.184;2023-05-18T14:29:04;4.97;;;1.13;;
59876;SDS011;45749;51.140;17.184;2023-05-18T14:31:30;4.82;;;1.23;;
59876;SDS011;45749;51.140;17.184;2023-05-18T14:33:55;1.52;;;0.90;;
59876;SDS011;45749;51.140;17.184;2023-05-18T14:36:20;3.05;;;1.27;;
59876;SDS011;45749;51.140;17.184;2023-05-18T14:38:46;3.83;;;1.00;;
59876;SDS011;45749;51.140;17.184;2023-05-18T14:41:11;1.73;;;1.08;;
59876;SDS011;45749;51.140;17.184;2023-05-18T14:43:36;2.95;;;0.95;;
59876;SDS011;45749;51.140;17.184;2023-05-18T14:46:02;1.70;;;0.90;;
59876;SDS011;45749;51.140;17.184;2023-05-18T14:48:27;4.30;;;1.30;;
59876;SDS011;45749;51.140;17.184;2023-05-18T14:50:53;3.05;;;1.63;;
59876;SDS011;45749;51.140;17.184;2023-05-18T14:53:18;3.92;;;1.00;;